sensor_id;sensor_type;location;lat;lon;timestamp;temperature;humidity
67586;SHT31;55785;47.946;20.540;2024-01-06T00:01:40;3.95;87.56
67586;SHT31;55785;47.946;20.540;2024-01-06T00:06:52;3.97;87.99
67586;SHT31;55785;47.946;20.540;2024-01-06T00:09:17;3.98;87.95
67586;SHT31;55785;47.946;20.540;2024-01-06T00:11:48;4.07;87.78
67586;SHT31;55785;47.946;20.540;2024-01-06T00:14:26;4.12;87.67
67586;SHT31;55785;47.946;20.540;2024-01-06T00:16:57;4.19;87.54
67586;SHT31;55785;47.946;20.540;2024-01-06T00:19:30;4.18;87.39
67586;SHT31;55785;47.946;20.540;2024-01-06T00:21:55;4.25;87.25
67586;SHT31;55785;47.946;20.540;2024-01-06T00:24:21;4.31;87.05
67586;SHT31;55785;47.946;20.540;2024-01-06T00:26:52;4.34;86.85
67586;SHT31;55785;47.946;20.540;2024-01-06T00:29:17;4.34;86.69
67586;SHT31;55785;47.946;20.540;2024-01-06T00:31:43;4.31;86.95
67586;SHT31;55785;47.946;20.540;2024-01-06T00:34:35;4.32;86.52
67586;SHT31;55785;47.946;20.540;2024-01-06T00:37:06;4.25;86.44
67586;SHT31;55785;47.946;20.540;2024-01-06T00:39:43;4.26;86.51
67586;SHT31;55785;47.946;20.540;2024-01-06T00:42:13;4.22;86.52
67586;SHT31;55785;47.946;20.540;2024-01-06T00:44:44;4.25;86.79
67586;SHT31;55785;47.946;20.540;2024-01-06T00:47:12;4.25;86.61
67586;SHT31;55785;47.946;20.540;2024-01-06T00:52:52;4.31;86.19
67586;SHT31;55785;47.946;20.540;2024-01-06T00:55:38;4.36;85.92
67586;SHT31;55785;47.946;20.540;2024-01-06T00:58:39;4.29;86.12
67586;SHT31;55785;47.946;20.540;2024-01-06T01:01:23;4.28;86.10
67586;SHT31;55785;47.946;20.540;2024-01-06T01:03:48;4.28;86.21
67586;SHT31;55785;47.946;20.540;2024-01-06T01:06:13;4.29;86.10
67586;SHT31;55785;47.946;20.540;2024-01-06T01:08:39;4.29;86.03
67586;SHT31;55785;47.946;20.540;2024-01-06T01:11:04;4.28;86.06
67586;SHT31;55785;47.946;20.540;2024-01-06T01:13:30;4.25;86.26
67586;SHT31;55785;47.946;20.540;2024-01-06T01:15:55;4.18;86.19
67586;SHT31;55785;47.946;20.540;2024-01-06T01:18:21;4.12;86.74
67586;SHT31;55785;47.946;20.540;2024-01-06T01:20:46;4.12;86.79
67586;SHT31;55785;47.946;20.540;2024-01-06T01:23:11;4.17;86.52
67586;SHT31;55785;47.946;20.540;2024-01-06T01:25:37;4.12;86.39
67586;SHT31;55785;47.946;20.540;2024-01-06T01:28:02;4.17;86.17
67586;SHT31;55785;47.946;20.540;2024-01-06T01:30:28;4.12;85.94
67586;SHT31;55785;47.946;20.540;2024-01-06T01:32:53;4.08;85.89
67586;SHT31;55785;47.946;20.540;2024-01-06T01:35:18;4.08;86.16
67586;SHT31;55785;47.946;20.540;2024-01-06T01:37:44;4.02;86.25
67586;SHT31;55785;47.946;20.540;2024-01-06T01:40:10;3.99;86.15
67586;SHT31;55785;47.946;20.540;2024-01-06T01:42:35;4.01;86.00
67586;SHT31;55785;47.946;20.540;2024-01-06T01:45:00;3.95;86.15
67586;SHT31;55785;47.946;20.540;2024-01-06T01:47:26;3.94;86.32
67586;SHT31;55785;47.946;20.540;2024-01-06T01:49:53;3.87;86.48
67586;SHT31;55785;47.946;20.540;2024-01-06T01:52:20;3.84;86.49
67586;SHT31;55785;47.946;20.540;2024-01-06T01:54:45;3.73;86.55
67586;SHT31;55785;47.946;20.540;2024-01-06T01:57:12;3.70;86.76
67586;SHT31;55785;47.946;20.540;2024-01-06T01:59:39;3.60;87.20
67586;SHT31;55785;47.946;20.540;2024-01-06T02:02:05;3.44;86.82
67586;SHT31;55785;47.946;20.540;2024-01-06T02:04:30;3.30;87.70
67586;SHT31;55785;47.946;20.540;2024-01-06T02:06:56;3.29;88.46
67586;SHT31;55785;47.946;20.540;2024-01-06T02:09:21;3.30;88.64
67586;SHT31;55785;47.946;20.540;2024-01-06T02:11:46;3.33;88.49
67586;SHT31;55785;47.946;20.540;2024-01-06T02:14:12;3.35;88.30
67586;SHT31;55785;47.946;20.540;2024-01-06T02:16:37;3.25;87.42
67586;SHT31;55785;47.946;20.540;2024-01-06T02:19:02;3.26;87.25
67586;SHT31;55785;47.946;20.540;2024-01-06T02:21:28;3.19;87.65
67586;SHT31;55785;47.946;20.540;2024-01-06T02:23:53;3.18;88.12
67586;SHT31;55785;47.946;20.540;2024-01-06T02:26:18;3.19;88.49
67586;SHT31;55785;47.946;20.540;2024-01-06T02:28:44;3.20;88.43
67586;SHT31;55785;47.946;20.540;2024-01-06T02:31:09;3.22;88.50
67586;SHT31;55785;47.946;20.540;2024-01-06T02:33:35;3.35;88.36
67586;SHT31;55785;47.946;20.540;2024-01-06T02:36:00;3.38;88.15
67586;SHT31;55785;47.946;20.540;2024-01-06T02:38:25;3.28;88.23
67586;SHT31;55785;47.946;20.540;2024-01-06T02:40:51;3.28;88.14
67586;SHT31;55785;47.946;20.540;2024-01-06T02:43:16;3.29;88.33
67586;SHT31;55785;47.946;20.540;2024-01-06T02:45:41;3.32;88.54
67586;SHT31;55785;47.946;20.540;2024-01-06T02:48:07;3.36;88.85
67586;SHT31;55785;47.946;20.540;2024-01-06T02:50:32;3.38;88.87
67586;SHT31;55785;47.946;20.540;2024-01-06T02:52:57;3.43;88.95
67586;SHT31;55785;47.946;20.540;2024-01-06T02:55:23;3.49;88.86
67586;SHT31;55785;47.946;20.540;2024-01-06T02:57:48;3.59;88.82
67586;SHT31;55785;47.946;20.540;2024-01-06T03:00:14;3.67;88.54
67586;SHT31;55785;47.946;20.540;2024-01-06T03:02:39;3.74;88.21
67586;SHT31;55785;47.946;20.540;2024-01-06T03:05:05;3.78;88.10
67586;SHT31;55785;47.946;20.540;2024-01-06T03:07:30;3.77;88.18
67586;SHT31;55785;47.946;20.540;2024-01-06T03:09:55;3.80;88.23
67586;SHT31;55785;47.946;20.540;2024-01-06T03:12:21;3.83;88.20
67586;SHT31;55785;47.946;20.540;2024-01-06T03:14:47;3.90;88.03
67586;SHT31;55785;47.946;20.540;2024-01-06T03:17:12;3.93;87.89
67586;SHT31;55785;47.946;20.540;2024-01-06T03:19:38;3.97;87.76
67586;SHT31;55785;47.946;20.540;2024-01-06T03:22:04;4.04;87.59
67586;SHT31;55785;47.946;20.540;2024-01-06T03:24:29;4.04;87.58
67586;SHT31;55785;47.946;20.540;2024-01-06T03:26:54;4.07;87.56
67586;SHT31;55785;47.946;20.540;2024-01-06T03:29:20;4.02;87.53
67586;SHT31;55785;47.946;20.540;2024-01-06T03:31:45;3.99;87.50
67586;SHT31;55785;47.946;20.540;2024-01-06T03:34:11;4.07;87.57
67586;SHT31;55785;47.946;20.540;2024-01-06T03:36:37;4.11;87.53
67586;SHT31;55785;47.946;20.540;2024-01-06T03:39:03;4.09;87.45
67586;SHT31;55785;47.946;20.540;2024-01-06T03:41:28;4.11;87.34
67586;SHT31;55785;47.946;20.540;2024-01-06T03:43:54;4.12;87.33
67586;SHT31;55785;47.946;20.540;2024-01-06T03:46:19;4.12;87.41
67586;SHT31;55785;47.946;20.540;2024-01-06T03:48:44;4.15;87.40
67586;SHT31;55785;47.946;20.540;2024-01-06T03:51:10;4.24;87.25
67586;SHT31;55785;47.946;20.540;2024-01-06T03:53:35;4.29;87.11
67586;SHT31;55785;47.946;20.540;2024-01-06T03:56:02;4.28;86.98
67586;SHT31;55785;47.946;20.540;2024-01-06T03:58:27;4.22;87.30
67586;SHT31;55785;47.946;20.540;2024-01-06T04:00:53;4.18;87.36
67586;SHT31;55785;47.946;20.540;2024-01-06T04:03:18;4.19;87.32
67586;SHT31;55785;47.946;20.540;2024-01-06T04:05:43;4.26;87.23
67586;SHT31;55785;47.946;20.540;2024-01-06T04:08:09;4.31;87.08
67586;SHT31;55785;47.946;20.540;2024-01-06T04:10:34;4.36;86.88
67586;SHT31;55785;47.946;20.540;2024-01-06T04:12:59;4.46;86.62
67586;SHT31;55785;47.946;20.540;2024-01-06T04:15:25;4.52;86.31
67586;SHT31;55785;47.946;20.540;2024-01-06T04:17:50;4.57;86.19
67586;SHT31;55785;47.946;20.540;2024-01-06T04:20:15;4.62;86.02
67586;SHT31;55785;47.946;20.540;2024-01-06T04:22:41;4.65;85.99
67586;SHT31;55785;47.946;20.540;2024-01-06T04:25:06;4.65;85.91
67586;SHT31;55785;47.946;20.540;2024-01-06T04:27:32;4.69;86.21
67586;SHT31;55785;47.946;20.540;2024-01-06T04:29:57;4.66;86.10
67586;SHT31;55785;47.946;20.540;2024-01-06T04:32:22;4.66;86.17
67586;SHT31;55785;47.946;20.540;2024-01-06T04:34:48;4.65;86.21
67586;SHT31;55785;47.946;20.540;2024-01-06T04:37:13;4.65;86.16
67586;SHT31;55785;47.946;20.540;2024-01-06T04:39:39;4.66;85.97
67586;SHT31;55785;47.946;20.540;2024-01-06T04:42:04;4.69;86.11
67586;SHT31;55785;47.946;20.540;2024-01-06T04:44:30;4.74;86.00
67586;SHT31;55785;47.946;20.540;2024-01-06T04:46:55;4.80;85.93
67586;SHT31;55785;47.946;20.540;2024-01-06T04:49:21;4.84;85.93
67586;SHT31;55785;47.946;20.540;2024-01-06T04:51:47;4.77;86.18
67586;SHT31;55785;47.946;20.540;2024-01-06T04:54:13;4.79;86.05
67586;SHT31;55785;47.946;20.540;2024-01-06T04:56:38;4.81;86.02
67586;SHT31;55785;47.946;20.540;2024-01-06T04:59:03;4.80;86.06
67586;SHT31;55785;47.946;20.540;2024-01-06T05:01:29;4.76;86.04
67586;SHT31;55785;47.946;20.540;2024-01-06T05:03:54;4.74;86.16
67586;SHT31;55785;47.946;20.540;2024-01-06T05:06:19;4.69;86.38
67586;SHT31;55785;47.946;20.540;2024-01-06T05:08:45;4.70;86.47
67586;SHT31;55785;47.946;20.540;2024-01-06T05:11:11;4.67;86.40
67586;SHT31;55785;47.946;20.540;2024-01-06T05:13:37;4.67;86.51
67586;SHT31;55785;47.946;20.540;2024-01-06T05:16:02;4.73;86.38
67586;SHT31;55785;47.946;20.540;2024-01-06T05:18:27;4.79;86.30
67586;SHT31;55785;47.946;20.540;2024-01-06T05:20:53;4.77;86.31
67586;SHT31;55785;47.946;20.540;2024-01-06T05:23:19;4.81;86.44
67586;SHT31;55785;47.946;20.540;2024-01-06T05:25:45;4.83;86.53
67586;SHT31;55785;47.946;20.540;2024-01-06T05:28:10;4.80;86.52
67586;SHT31;55785;47.946;20.540;2024-01-06T05:30:35;4.74;86.75
67586;SHT31;55785;47.946;20.540;2024-01-06T05:33:01;4.74;86.97
67586;SHT31;55785;47.946;20.540;2024-01-06T05:35:27;4.73;87.04
67586;SHT31;55785;47.946;20.540;2024-01-06T05:37:52;4.73;87.01
67586;SHT31;55785;47.946;20.540;2024-01-06T05:40:17;4.70;87.17
67586;SHT31;55785;47.946;20.540;2024-01-06T05:42:42;4.70;87.22
67586;SHT31;55785;47.946;20.540;2024-01-06T05:45:10;4.73;87.35
67586;SHT31;55785;47.946;20.540;2024-01-06T05:47:36;4.73;87.51
67586;SHT31;55785;47.946;20.540;2024-01-06T05:50:01;4.79;87.33
67586;SHT31;55785;47.946;20.540;2024-01-06T05:52:26;4.81;87.19
67586;SHT31;55785;47.946;20.540;2024-01-06T05:54:53;4.87;87.30
67586;SHT31;55785;47.946;20.540;2024-01-06T05:57:19;4.91;87.15
67586;SHT31;55785;47.946;20.540;2024-01-06T05:59:44;4.97;87.03
67586;SHT31;55785;47.946;20.540;2024-01-06T06:02:10;4.97;87.00
67586;SHT31;55785;47.946;20.540;2024-01-06T06:04:35;4.88;87.08
67586;SHT31;55785;47.946;20.540;2024-01-06T06:07:00;4.93;87.30
67586;SHT31;55785;47.946;20.540;2024-01-06T06:09:26;4.88;87.38
67586;SHT31;55785;47.946;20.540;2024-01-06T06:11:51;4.94;87.14
67586;SHT31;55785;47.946;20.540;2024-01-06T06:14:16;5.04;86.39
67586;SHT31;55785;47.946;20.540;2024-01-06T06:16:42;5.14;86.19
67586;SHT31;55785;47.946;20.540;2024-01-06T06:19:07;5.23;85.94
67586;SHT31;55785;47.946;20.540;2024-01-06T06:21:32;5.30;85.22
67586;SHT31;55785;47.946;20.540;2024-01-06T06:23:58;5.24;85.64
67586;SHT31;55785;47.946;20.540;2024-01-06T06:26:23;5.30;85.43
67586;SHT31;55785;47.946;20.540;2024-01-06T06:28:48;5.34;85.21
67586;SHT31;55785;47.946;20.540;2024-01-06T06:31:14;5.31;85.03
67586;SHT31;55785;47.946;20.540;2024-01-06T06:33:39;5.31;84.82
67586;SHT31;55785;47.946;20.540;2024-01-06T06:36:05;5.27;85.00
67586;SHT31;55785;47.946;20.540;2024-01-06T06:38:30;5.30;84.76
67586;SHT31;55785;47.946;20.540;2024-01-06T06:40:56;5.25;84.63
67586;SHT31;55785;47.946;20.540;2024-01-06T06:43:21;5.24;84.94
67586;SHT31;55785;47.946;20.540;2024-01-06T06:45:47;5.24;85.13
67586;SHT31;55785;47.946;20.540;2024-01-06T06:48:12;5.24;84.80
67586;SHT31;55785;47.946;20.540;2024-01-06T06:50:37;5.30;84.43
67586;SHT31;55785;47.946;20.540;2024-01-06T06:53:03;5.30;84.37
67586;SHT31;55785;47.946;20.540;2024-01-06T06:55:28;5.31;84.63
67586;SHT31;55785;47.946;20.540;2024-01-06T06:57:53;5.36;84.97
67586;SHT31;55785;47.946;20.540;2024-01-06T07:00:19;5.38;84.77
67586;SHT31;55785;47.946;20.540;2024-01-06T07:02:45;5.36;84.61
67586;SHT31;55785;47.946;20.540;2024-01-06T07:05:10;5.42;84.63
67586;SHT31;55785;47.946;20.540;2024-01-06T07:07:36;5.44;84.45
67586;SHT31;55785;47.946;20.540;2024-01-06T07:10:02;5.39;84.70
67586;SHT31;55785;47.946;20.540;2024-01-06T07:12:27;5.31;84.91
67586;SHT31;55785;47.946;20.540;2024-01-06T07:14:53;5.28;84.89
67586;SHT31;55785;47.946;20.540;2024-01-06T07:17:18;5.30;85.01
67586;SHT31;55785;47.946;20.540;2024-01-06T07:19:44;5.28;85.12
67586;SHT31;55785;47.946;20.540;2024-01-06T07:22:09;5.39;85.10
67586;SHT31;55785;47.946;20.540;2024-01-06T07:24:34;5.55;84.75
67586;SHT31;55785;47.946;20.540;2024-01-06T07:27:00;5.63;84.76
67586;SHT31;55785;47.946;20.540;2024-01-06T07:29:25;5.67;84.70
67586;SHT31;55785;47.946;20.540;2024-01-06T07:31:50;5.74;84.55
67586;SHT31;55785;47.946;20.540;2024-01-06T07:34:15;5.76;84.34
67586;SHT31;55785;47.946;20.540;2024-01-06T07:36:41;5.72;84.87
67586;SHT31;55785;47.946;20.540;2024-01-06T07:39:06;5.65;85.55
67586;SHT31;55785;47.946;20.540;2024-01-06T07:41:32;5.53;86.02
67586;SHT31;55785;47.946;20.540;2024-01-06T07:43:57;5.56;86.32
67586;SHT31;55785;47.946;20.540;2024-01-06T07:46:23;5.60;86.26
67586;SHT31;55785;47.946;20.540;2024-01-06T07:48:48;5.63;86.36
67586;SHT31;55785;47.946;20.540;2024-01-06T07:51:14;5.65;86.44
67586;SHT31;55785;47.946;20.540;2024-01-06T07:53:40;5.63;86.43
67586;SHT31;55785;47.946;20.540;2024-01-06T07:56:05;5.69;86.01
67586;SHT31;55785;47.946;20.540;2024-01-06T07:58:32;5.76;85.99
67586;SHT31;55785;47.946;20.540;2024-01-06T08:00:57;5.72;86.33
67586;SHT31;55785;47.946;20.540;2024-01-06T08:03:23;5.73;86.38
67586;SHT31;55785;47.946;20.540;2024-01-06T08:05:48;5.82;86.14
67586;SHT31;55785;47.946;20.540;2024-01-06T08:08:14;5.82;86.02
67586;SHT31;55785;47.946;20.540;2024-01-06T08:10:39;5.83;86.23
67586;SHT31;55785;47.946;20.540;2024-01-06T08:13:04;5.83;86.65
67586;SHT31;55785;47.946;20.540;2024-01-06T08:15:29;5.85;86.94
67586;SHT31;55785;47.946;20.540;2024-01-06T08:17:55;5.83;87.64
67586;SHT31;55785;47.946;20.540;2024-01-06T08:20:20;5.86;88.35
67586;SHT31;55785;47.946;20.540;2024-01-06T08:22:45;5.90;88.52
67586;SHT31;55785;47.946;20.540;2024-01-06T08:25:11;5.87;88.47
67586;SHT31;55785;47.946;20.540;2024-01-06T08:27:36;5.87;88.47
67586;SHT31;55785;47.946;20.540;2024-01-06T08:30:02;5.82;88.52
67586;SHT31;55785;47.946;20.540;2024-01-06T08:32:27;5.83;88.73
67586;SHT31;55785;47.946;20.540;2024-01-06T08:34:52;5.76;89.11
67586;SHT31;55785;47.946;20.540;2024-01-06T08:37:18;5.76;89.36
67586;SHT31;55785;47.946;20.540;2024-01-06T08:39:43;5.76;89.57
67586;SHT31;55785;47.946;20.540;2024-01-06T08:42:09;5.83;89.84
67586;SHT31;55785;47.946;20.540;2024-01-06T08:44:34;5.89;90.17
67586;SHT31;55785;47.946;20.540;2024-01-06T08:46:59;5.92;90.08
67586;SHT31;55785;47.946;20.540;2024-01-06T08:49:25;5.96;90.22
67586;SHT31;55785;47.946;20.540;2024-01-06T08:51:50;6.01;90.43
67586;SHT31;55785;47.946;20.540;2024-01-06T08:54:15;5.99;90.70
67586;SHT31;55785;47.946;20.540;2024-01-06T08:56:41;5.94;90.74
67586;SHT31;55785;47.946;20.540;2024-01-06T08:59:06;5.94;90.70
67586;SHT31;55785;47.946;20.540;2024-01-06T09:01:32;5.96;90.64
67586;SHT31;55785;47.946;20.540;2024-01-06T09:03:57;5.93;90.80
67586;SHT31;55785;47.946;20.540;2024-01-06T09:06:22;5.99;90.81
67586;SHT31;55785;47.946;20.540;2024-01-06T09:08:48;6.03;90.93
67586;SHT31;55785;47.946;20.540;2024-01-06T09:11:13;6.04;90.93
67586;SHT31;55785;47.946;20.540;2024-01-06T09:13:39;6.10;90.95
67586;SHT31;55785;47.946;20.540;2024-01-06T09:16:04;6.09;90.97
67586;SHT31;55785;47.946;20.540;2024-01-06T09:18:30;6.09;90.97
67586;SHT31;55785;47.946;20.540;2024-01-06T09:20:55;6.07;90.80
67586;SHT31;55785;47.946;20.540;2024-01-06T09:23:20;6.14;90.76
67586;SHT31;55785;47.946;20.540;2024-01-06T09:25:46;6.13;90.72
67586;SHT31;55785;47.946;20.540;2024-01-06T09:28:12;6.11;90.85
67586;SHT31;55785;47.946;20.540;2024-01-06T09:30:37;6.14;90.82
67586;SHT31;55785;47.946;20.540;2024-01-06T09:33:03;6.20;90.83
67586;SHT31;55785;47.946;20.540;2024-01-06T09:35:28;6.13;90.87
67586;SHT31;55785;47.946;20.540;2024-01-06T09:37:53;6.14;91.00
67586;SHT31;55785;47.946;20.540;2024-01-06T09:40:23;6.16;91.12
67586;SHT31;55785;47.946;20.540;2024-01-06T09:42:52;6.14;91.23
67586;SHT31;55785;47.946;20.540;2024-01-06T09:45:17;6.11;91.34
67586;SHT31;55785;47.946;20.540;2024-01-06T09:47:47;6.21;91.51
67586;SHT31;55785;47.946;20.540;2024-01-06T09:50:14;6.24;91.61
67586;SHT31;55785;47.946;20.540;2024-01-06T09:52:41;6.25;91.62
67586;SHT31;55785;47.946;20.540;2024-01-06T09:55:10;6.35;91.64
67586;SHT31;55785;47.946;20.540;2024-01-06T09:57:36;6.46;91.63
67586;SHT31;55785;47.946;20.540;2024-01-06T10:00:02;6.48;91.73
67586;SHT31;55785;47.946;20.540;2024-01-06T10:02:28;6.59;91.77
67586;SHT31;55785;47.946;20.540;2024-01-06T10:04:53;6.68;91.72
67586;SHT31;55785;47.946;20.540;2024-01-06T10:07:18;6.73;91.64
67586;SHT31;55785;47.946;20.540;2024-01-06T10:09:44;6.80;91.59
67586;SHT31;55785;47.946;20.540;2024-01-06T10:12:09;6.83;91.50
67586;SHT31;55785;47.946;20.540;2024-01-06T10:14:35;6.88;91.58
67586;SHT31;55785;47.946;20.540;2024-01-06T10:17:00;6.95;91.37
67586;SHT31;55785;47.946;20.540;2024-01-06T10:19:26;6.93;91.36
67586;SHT31;55785;47.946;20.540;2024-01-06T10:21:51;6.92;91.40
67586;SHT31;55785;47.946;20.540;2024-01-06T10:24:18;6.92;91.49
67586;SHT31;55785;47.946;20.540;2024-01-06T10:26:45;6.96;91.58
67586;SHT31;55785;47.946;20.540;2024-01-06T10:29:10;6.97;91.60
67586;SHT31;55785;47.946;20.540;2024-01-06T10:31:36;7.04;91.69
67586;SHT31;55785;47.946;20.540;2024-01-06T10:34:01;7.07;91.72
67586;SHT31;55785;47.946;20.540;2024-01-06T10:36:28;7.13;91.67
67586;SHT31;55785;47.946;20.540;2024-01-06T10:38:54;7.16;91.68
67586;SHT31;55785;47.946;20.540;2024-01-06T10:41:20;7.21;91.69
67586;SHT31;55785;47.946;20.540;2024-01-06T10:43:47;7.28;91.71
67586;SHT31;55785;47.946;20.540;2024-01-06T10:46:14;7.34;91.60
67586;SHT31;55785;47.946;20.540;2024-01-06T10:48:40;7.34;91.58
67586;SHT31;55785;47.946;20.540;2024-01-06T10:51:05;7.35;91.70
67586;SHT31;55785;47.946;20.540;2024-01-06T10:53:32;7.26;91.57
67586;SHT31;55785;47.946;20.540;2024-01-06T10:55:57;7.21;91.44
67586;SHT31;55785;47.946;20.540;2024-01-06T10:58:23;7.09;91.09
67586;SHT31;55785;47.946;20.540;2024-01-06T11:00:48;7.04;91.18
67586;SHT31;55785;47.946;20.540;2024-01-06T11:03:14;7.04;91.32
67586;SHT31;55785;47.946;20.540;2024-01-06T11:05:41;7.06;91.28
67586;SHT31;55785;47.946;20.540;2024-01-06T11:08:07;7.09;91.22
67586;SHT31;55785;47.946;20.540;2024-01-06T11:10:34;7.10;91.25
67586;SHT31;55785;47.946;20.540;2024-01-06T11:13:09;7.01;91.08
67586;SHT31;55785;47.946;20.540;2024-01-06T11:15:46;7.04;91.01
67586;SHT31;55785;47.946;20.540;2024-01-06T11:18:32;7.01;91.02
67586;SHT31;55785;47.946;20.540;2024-01-06T11:21:22;7.01;91.17
67586;SHT31;55785;47.946;20.540;2024-01-06T11:26:31;7.10;90.97
67586;SHT31;55785;47.946;20.540;2024-01-06T11:28:57;7.14;90.85
67586;SHT31;55785;47.946;20.540;2024-01-06T11:31:22;7.11;90.53
67586;SHT31;55785;47.946;20.540;2024-01-06T11:33:51;7.10;90.54
67586;SHT31;55785;47.946;20.540;2024-01-06T11:36:16;7.09;90.49
67586;SHT31;55785;47.946;20.540;2024-01-06T11:38:42;7.07;90.60
67586;SHT31;55785;47.946;20.540;2024-01-06T11:41:07;7.04;90.68
67586;SHT31;55785;47.946;20.540;2024-01-06T11:43:34;6.96;91.01
67586;SHT31;55785;47.946;20.540;2024-01-06T11:46:01;6.97;90.97
67586;SHT31;55785;47.946;20.540;2024-01-06T11:48:29;7.04;91.05
67586;SHT31;55785;47.946;20.540;2024-01-06T11:50:55;7.06;91.13
67586;SHT31;55785;47.946;20.540;2024-01-06T11:53:21;7.09;90.81
67586;SHT31;55785;47.946;20.540;2024-01-06T11:55:48;7.13;91.14
67586;SHT31;55785;47.946;20.540;2024-01-06T11:58:16;7.11;90.92
67586;SHT31;55785;47.946;20.540;2024-01-06T12:00:42;7.14;90.93
67586;SHT31;55785;47.946;20.540;2024-01-06T12:03:07;7.14;90.91
67586;SHT31;55785;47.946;20.540;2024-01-06T12:05:33;7.10;91.01
67586;SHT31;55785;47.946;20.540;2024-01-06T12:08:03;7.11;91.13
67586;SHT31;55785;47.946;20.540;2024-01-06T12:10:29;7.17;90.96
67586;SHT31;55785;47.946;20.540;2024-01-06T12:13:02;7.21;91.03
67586;SHT31;55785;47.946;20.540;2024-01-06T12:15:29;7.20;91.09
67586;SHT31;55785;47.946;20.540;2024-01-06T12:17:56;7.16;90.90
67586;SHT31;55785;47.946;20.540;2024-01-06T12:20:22;7.14;90.97
67586;SHT31;55785;47.946;20.540;2024-01-06T12:22:48;7.13;91.17
67586;SHT31;55785;47.946;20.540;2024-01-06T12:25:14;7.11;91.34
67586;SHT31;55785;47.946;20.540;2024-01-06T12:27:42;7.14;91.38
67586;SHT31;55785;47.946;20.540;2024-01-06T12:30:15;7.14;91.23
67586;SHT31;55785;47.946;20.540;2024-01-06T12:32:42;7.10;91.18
67586;SHT31;55785;47.946;20.540;2024-01-06T12:35:09;7.16;91.38
67586;SHT31;55785;47.946;20.540;2024-01-06T12:37:35;7.23;91.41
67586;SHT31;55785;47.946;20.540;2024-01-06T12:40:01;7.24;91.38
67586;SHT31;55785;47.946;20.540;2024-01-06T12:42:26;7.32;91.58
67586;SHT31;55785;47.946;20.540;2024-01-06T12:44:52;7.35;91.48
67586;SHT31;55785;47.946;20.540;2024-01-06T12:47:17;7.41;91.44
67586;SHT31;55785;47.946;20.540;2024-01-06T12:49:42;7.50;91.52
67586;SHT31;55785;47.946;20.540;2024-01-06T12:52:08;7.52;91.26
67586;SHT31;55785;47.946;20.540;2024-01-06T12:54:33;7.54;91.04
67586;SHT31;55785;47.946;20.540;2024-01-06T12:56:58;7.57;91.09
67586;SHT31;55785;47.946;20.540;2024-01-06T12:59:24;7.57;91.12
67586;SHT31;55785;47.946;20.540;2024-01-06T13:01:49;7.58;91.11
67586;SHT31;55785;47.946;20.540;2024-01-06T13:04:14;7.61;91.19
67586;SHT31;55785;47.946;20.540;2024-01-06T13:06:40;7.58;90.98
67586;SHT31;55785;47.946;20.540;2024-01-06T13:09:05;7.59;91.17
67586;SHT31;55785;47.946;20.540;2024-01-06T13:11:31;7.65;91.18
67586;SHT31;55785;47.946;20.540;2024-01-06T13:13:56;7.72;91.16
67586;SHT31;55785;47.946;20.540;2024-01-06T13:16:21;7.69;91.13
67586;SHT31;55785;47.946;20.540;2024-01-06T13:18:47;7.71;91.12
67586;SHT31;55785;47.946;20.540;2024-01-06T13:21:12;7.77;91.10
67586;SHT31;55785;47.946;20.540;2024-01-06T13:23:38;7.77;91.08
67586;SHT31;55785;47.946;20.540;2024-01-06T13:26:03;7.69;91.22
67586;SHT31;55785;47.946;20.540;2024-01-06T13:28:28;7.64;91.31
67586;SHT31;55785;47.946;20.540;2024-01-06T13:30:54;7.57;91.21
67586;SHT31;55785;47.946;20.540;2024-01-06T13:33:19;7.57;91.31
67586;SHT31;55785;47.946;20.540;2024-01-06T13:35:44;7.51;91.44
67586;SHT31;55785;47.946;20.540;2024-01-06T13:38:10;7.47;91.47
67586;SHT31;55785;47.946;20.540;2024-01-06T13:40:35;7.43;91.88
67586;SHT31;55785;47.946;20.540;2024-01-06T13:43:00;7.34;91.90
67586;SHT31;55785;47.946;20.540;2024-01-06T13:45:26;7.28;91.89
67586;SHT31;55785;47.946;20.540;2024-01-06T13:47:51;7.23;92.01
67586;SHT31;55785;47.946;20.540;2024-01-06T13:50:17;7.11;92.01
67586;SHT31;55785;47.946;20.540;2024-01-06T13:52:43;7.09;92.08
67586;SHT31;55785;47.946;20.540;2024-01-06T13:55:09;7.04;92.10
67586;SHT31;55785;47.946;20.540;2024-01-06T13:57:34;7.04;92.05
67586;SHT31;55785;47.946;20.540;2024-01-06T14:00:00;7.03;92.03
67586;SHT31;55785;47.946;20.540;2024-01-06T14:02:25;6.96;92.06
67586;SHT31;55785;47.946;20.540;2024-01-06T14:04:51;6.96;91.98
67586;SHT31;55785;47.946;20.540;2024-01-06T14:07:17;6.92;92.03
67586;SHT31;55785;47.946;20.540;2024-01-06T14:09:42;6.88;92.12
67586;SHT31;55785;47.946;20.540;2024-01-06T14:12:07;6.90;92.24
67586;SHT31;55785;47.946;20.540;2024-01-06T14:14:33;6.93;92.35
67586;SHT31;55785;47.946;20.540;2024-01-06T14:16:58;6.89;92.37
67586;SHT31;55785;47.946;20.540;2024-01-06T14:19:24;6.93;92.39
67586;SHT31;55785;47.946;20.540;2024-01-06T14:21:49;6.92;92.37
67586;SHT31;55785;47.946;20.540;2024-01-06T14:24:14;6.93;92.28
67586;SHT31;55785;47.946;20.540;2024-01-06T14:26:40;6.90;92.20
67586;SHT31;55785;47.946;20.540;2024-01-06T14:29:05;6.90;92.20
67586;SHT31;55785;47.946;20.540;2024-01-06T14:31:30;6.88;92.21
67586;SHT31;55785;47.946;20.540;2024-01-06T14:33:56;6.85;92.22
67586;SHT31;55785;47.946;20.540;2024-01-06T14:36:21;6.80;92.31
67586;SHT31;55785;47.946;20.540;2024-01-06T14:38:46;6.73;92.38
67586;SHT31;55785;47.946;20.540;2024-01-06T14:41:12;6.75;92.50
67586;SHT31;55785;47.946;20.540;2024-01-06T14:43:37;6.73;92.61
67586;SHT31;55785;47.946;20.540;2024-01-06T14:46:02;6.73;92.62
67586;SHT31;55785;47.946;20.540;2024-01-06T14:48:28;6.72;92.67
67586;SHT31;55785;47.946;20.540;2024-01-06T14:50:53;6.73;92.60
67586;SHT31;55785;47.946;20.540;2024-01-06T14:53:19;6.71;92.64
67586;SHT31;55785;47.946;20.540;2024-01-06T14:55:44;6.69;92.70
67586;SHT31;55785;47.946;20.540;2024-01-06T14:58:09;6.71;92.75
67586;SHT31;55785;47.946;20.540;2024-01-06T15:00:35;6.71;92.68
67586;SHT31;55785;47.946;20.540;2024-01-06T15:03:01;6.69;92.73
67586;SHT31;55785;47.946;20.540;2024-01-06T15:05:26;6.69;92.68
67586;SHT31;55785;47.946;20.540;2024-01-06T15:07:52;6.73;92.74
67586;SHT31;55785;47.946;20.540;2024-01-06T15:10:17;6.78;92.66
67586;SHT31;55785;47.946;20.540;2024-01-06T15:12:42;6.79;92.57
67586;SHT31;55785;47.946;20.540;2024-01-06T15:15:08;6.78;92.47
67586;SHT31;55785;47.946;20.540;2024-01-06T15:17:33;6.72;92.56
67586;SHT31;55785;47.946;20.540;2024-01-06T15:19:59;6.69;92.56
67586;SHT31;55785;47.946;20.540;2024-01-06T15:22:24;6.69;92.59
67586;SHT31;55785;47.946;20.540;2024-01-06T15:24:49;6.65;92.63
67586;SHT31;55785;47.946;20.540;2024-01-06T15:27:15;6.58;92.77
67586;SHT31;55785;47.946;20.540;2024-01-06T15:29:40;6.55;92.82
67586;SHT31;55785;47.946;20.540;2024-01-06T15:32:06;6.61;92.82